sensor_id;sensor_type;location;lat;lon;timestamp;P1;durP1;ratioP1;P2;durP2;ratioP2
11681;SDS011;5897;42.640;23.310;2023-03-26T00:01:40;0.50;;;0.50;;
11681;SDS011;5897;42.640;23.310;2023-03-26T00:04:11;0.50;;;0.50;;
11681;SDS011;5897;42.640;23.310;2023-03-26T00:06:38;0.30;;;0.30;;
11681;SDS011;5897;42.640;23.310;2023-03-26T00:09:07;0.50;;;0.50;;
11681;SDS011;5897;42.640;23.310;2023-03-26T00:11:37;0.50;;;0.50;;
11681;SDS011;5897;42.640;23.310;2023-03-26T00:14:03;0.65;;;0.60;;
11681;SDS011;5897;42.640;23.310;2023-03-26T00:16:31;0.55;;;0.55;;
11681;SDS011;5897;42.640;23.310;2023-03-26T00:18:59;0.30;;;0.30;;
11681;SDS011;5897;42.640;23.310;2023-03-26T00:21:27;0.68;;;0.68;;
11681;SDS011;5897;42.640;23.310;2023-03-26T00:23:56;0.47;;;0.47;;
11681;SDS011;5897;42.640;23.310;2023-03-26T00:26:26;0.60;;;0.60;;
11681;SDS011;5897;42.640;23.310;2023-03-26T00:28:53;0.75;;;0.70;;
11681;SDS011;5897;42.640;23.310;2023-03-26T00:31:20;0.70;;;0.70;;
11681;SDS011;5897;42.640;23.310;2023-03-26T00:33:47;2.30;;;0.80;;
11681;SDS011;5897;42.640;23.310;2023-03-26T00:36:19;0.50;;;0.50;;
11681;SDS011;5897;42.640;23.310;2023-03-26T00:38:47;0.65;;;0.50;;
11681;SDS011;5897;42.640;23.310;2023-03-26T00:41:14;0.50;;;0.50;;
11681;SDS011;5897;42.640;23.310;2023-03-26T00:43:49;0.50;;;0.50;;
11681;SDS011;5897;42.640;23.310;2023-03-26T00:46:17;0.77;;;0.70;;
11681;SDS011;5897;42.640;23.310;2023-03-26T00:48:45;0.60;;;0.60;;
11681;SDS011;5897;42.640;23.310;2023-03-26T00:51:13;1.33;;;0.60;;
11681;SDS011;5897;42.640;23.310;2023-03-26T00:53:41;0.63;;;0.63;;
11681;SDS011;5897;42.640;23.310;2023-03-26T00:56:09;1.15;;;0.70;;
11681;SDS011;5897;42.640;23.310;2023-03-26T00:58:36;1.05;;;0.70;;
11681;SDS011;5897;42.640;23.310;2023-03-26T01:01:06;0.70;;;0.70;;
11681;SDS011;5897;42.640;23.310;2023-03-26T01:03:35;0.60;;;0.60;;
11681;SDS011;5897;42.640;23.310;2023-03-26T01:06:03;0.60;;;0.60;;
11681;SDS011;5897;42.640;23.310;2023-03-26T01:08:34;0.70;;;0.70;;
11681;SDS011;5897;42.640;23.310;2023-03-26T01:11:05;0.60;;;0.60;;
11681;SDS011;5897;42.640;23.310;2023-03-26T01:13:39;0.70;;;0.70;;
11681;SDS011;5897;42.640;23.310;2023-03-26T01:16:12;0.73;;;0.73;;
11681;SDS011;5897;42.640;23.310;2023-03-26T01:18:46;0.70;;;0.70;;
11681;SDS011;5897;42.640;23.310;2023-03-26T01:21:16;0.65;;;0.65;;
11681;SDS011;5897;42.640;23.310;2023-03-26T01:23:48;0.60;;;0.60;;
11681;SDS011;5897;42.640;23.310;2023-03-26T01:26:30;0.68;;;0.60;;
11681;SDS011;5897;42.640;23.310;2023-03-26T01:29:09;0.50;;;0.50;;
11681;SDS011;5897;42.640;23.310;2023-03-26T01:31:43;0.70;;;0.70;;
11681;SDS011;5897;42.640;23.310;2023-03-26T01:34:19;0.70;;;0.70;;
11681;SDS011;5897;42.640;23.310;2023-03-26T01:36:55;0.70;;;0.70;;
11681;SDS011;5897;42.640;23.310;2023-03-26T01:39:30;0.80;;;0.80;;
11681;SDS011;5897;42.640;23.310;2023-03-26T01:42:04;0.80;;;0.80;;
11681;SDS011;5897;42.640;23.310;2023-03-26T01:44:37;1.67;;;0.70;;
11681;SDS011;5897;42.640;23.310;2023-03-26T01:47:08;1.25;;;0.70;;
11681;SDS011;5897;42.640;23.310;2023-03-26T01:49:37;0.70;;;0.63;;
11681;SDS011;5897;42.640;23.310;2023-03-26T01:52:05;0.70;;;0.70;;
11681;SDS011;5897;42.640;23.310;2023-03-26T01:54:39;0.70;;;0.65;;
11681;SDS011;5897;42.640;23.310;2023-03-26T01:57:08;0.85;;;0.60;;
11681;SDS011;5897;42.640;23.310;2023-03-26T01:59:44;0.70;;;0.70;;
11681;SDS011;5897;42.640;23.310;2023-03-26T02:02:25;0.80;;;0.80;;
11681;SDS011;5897;42.640;23.310;2023-03-26T02:04:59;0.90;;;0.90;;
11681;SDS011;5897;42.640;23.310;2023-03-26T02:07:31;2.00;;;0.90;;
11681;SDS011;5897;42.640;23.310;2023-03-26T02:10:07;1.00;;;1.00;;
11681;SDS011;5897;42.640;23.310;2023-03-26T02:12:38;1.05;;;0.90;;
11681;SDS011;5897;42.640;23.310;2023-03-26T02:15:07;1.30;;;0.98;;
11681;SDS011;5897;42.640;23.310;2023-03-26T02:17:35;0.90;;;0.90;;
11681;SDS011;5897;42.640;23.310;2023-03-26T02:20:04;0.90;;;0.90;;
11681;SDS011;5897;42.640;23.310;2023-03-26T02:22:34;1.50;;;1.10;;
11681;SDS011;5897;42.640;23.310;2023-03-26T02:25:07;1.10;;;1.00;;
11681;SDS011;5897;42.640;23.310;2023-03-26T02:27:35;1.20;;;1.10;;
11681;SDS011;5897;42.640;23.310;2023-03-26T02:30:02;2.40;;;1.17;;
11681;SDS011;5897;42.640;23.310;2023-03-26T02:32:30;1.23;;;1.05;;
11681;SDS011;5897;42.640;23.310;2023-03-26T02:34:59;1.50;;;1.40;;
11681;SDS011;5897;42.640;23.310;2023-03-26T02:37:26;1.30;;;1.20;;
11681;SDS011;5897;42.640;23.310;2023-03-26T02:39:54;1.48;;;1.13;;
11681;SDS011;5897;42.640;23.310;2023-03-26T02:42:22;1.35;;;1.23;;
11681;SDS011;5897;42.640;23.310;2023-03-26T02:44:49;1.25;;;1.15;;
11681;SDS011;5897;42.640;23.310;2023-03-26T02:47:16;1.35;;;1.20;;
11681;SDS011;5897;42.640;23.310;2023-03-26T02:49:43;3.55;;;1.10;;
11681;SDS011;5897;42.640;23.310;2023-03-26T02:52:10;1.20;;;1.00;;
11681;SDS011;5897;42.640;23.310;2023-03-26T02:54:37;1.10;;;1.10;;
11681;SDS011;5897;42.640;23.310;2023-03-26T02:57:03;1.10;;;1.10;;
11681;SDS011;5897;42.640;23.310;2023-03-26T02:59:31;1.10;;;1.00;;
11681;SDS011;5897;42.640;23.310;2023-03-26T03:01:58;1.27;;;1.00;;
11681;SDS011;5897;42.640;23.310;2023-03-26T03:04:25;1.60;;;1.10;;
11681;SDS011;5897;42.640;23.310;2023-03-26T03:06:52;1.10;;;1.00;;
11681;SDS011;5897;42.640;23.310;2023-03-26T03:09:21;1.17;;;1.08;;
11681;SDS011;5897;42.640;23.310;2023-03-26T03:11:49;1.20;;;1.10;;
11681;SDS011;5897;42.640;23.310;2023-03-26T03:14:17;1.10;;;1.10;;
11681;SDS011;5897;42.640;23.310;2023-03-26T03:16:45;1.25;;;1.00;;
11681;SDS011;5897;42.640;23.310;2023-03-26T03:19:12;1.30;;;1.20;;
11681;SDS011;5897;42.640;23.310;2023-03-26T03:21:40;1.40;;;1.30;;
11681;SDS011;5897;42.640;23.310;2023-03-26T03:24:07;1.40;;;1.30;;
11681;SDS011;5897;42.640;23.310;2023-03-26T03:26:35;1.10;;;1.10;;
11681;SDS011;5897;42.640;23.310;2023-03-26T03:29:02;2.03;;;1.83;;
11681;SDS011;5897;42.640;23.310;2023-03-26T03:31:29;1.80;;;1.70;;
11681;SDS011;5897;42.640;23.310;2023-03-26T03:33:57;1.95;;;1.85;;
11681;SDS011;5897;42.640;23.310;2023-03-26T03:36:24;3.00;;;2.00;;
11681;SDS011;5897;42.640;23.310;2023-03-26T03:38:54;2.20;;;2.00;;
11681;SDS011;5897;42.640;23.310;2023-03-26T03:41:26;2.38;;;2.17;;
11681;SDS011;5897;42.640;23.310;2023-03-26T03:43:53;2.10;;;1.95;;
11681;SDS011;5897;42.640;23.310;2023-03-26T03:46:20;2.38;;;2.17;;
11681;SDS011;5897;42.640;23.310;2023-03-26T03:48:46;3.65;;;2.40;;
11681;SDS011;5897;42.640;23.310;2023-03-26T03:51:15;2.47;;;2.28;;
11681;SDS011;5897;42.640;23.310;2023-03-26T03:53:42;2.60;;;2.40;;
11681;SDS011;5897;42.640;23.310;2023-03-26T03:56:10;2.75;;;2.47;;
11681;SDS011;5897;42.640;23.310;2023-03-26T03:58:38;2.70;;;2.50;;
11681;SDS011;5897;42.640;23.310;2023-03-26T04:01:06;2.58;;;2.38;;
11681;SDS011;5897;42.640;23.310;2023-03-26T04:03:33;2.08;;;1.98;;
11681;SDS011;5897;42.640;23.310;2023-03-26T04:06:06;2.80;;;2.60;;
11681;SDS011;5897;42.640;23.310;2023-03-26T04:08:36;3.33;;;3.03;;
11681;SDS011;5897;42.640;23.310;2023-03-26T04:11:03;2.35;;;2.20;;
11681;SDS011;5897;42.640;23.310;2023-03-26T04:13:30;2.22;;;2.13;;
11681;SDS011;5897;42.640;23.310;2023-03-26T04:15:57;2.80;;;2.60;;
11681;SDS011;5897;42.640;23.310;2023-03-26T04:18:24;2.47;;;2.28;;
11681;SDS011;5897;42.640;23.310;2023-03-26T04:20:51;2.20;;;2.10;;
11681;SDS011;5897;42.640;23.310;2023-03-26T04:23:19;2.50;;;2.30;;
11681;SDS011;5897;42.640;23.310;2023-03-26T04:25:49;2.70;;;2.50;;
11681;SDS011;5897;42.640;23.310;2023-03-26T04:28:21;2.60;;;2.40;;
11681;SDS011;5897;42.640;23.310;2023-03-26T04:30:54;2.60;;;2.40;;
11681;SDS011;5897;42.640;23.310;2023-03-26T04:33:24;2.70;;;2.50;;
11681;SDS011;5897;42.640;23.310;2023-03-26T04:35:52;2.42;;;2.33;;
11681;SDS011;5897;42.640;23.310;2023-03-26T04:38:20;2.70;;;2.50;;
11681;SDS011;5897;42.640;23.310;2023-03-26T04:40:49;2.75;;;2.55;;
11681;SDS011;5897;42.640;23.310;2023-03-26T04:43:16;2.33;;;2.13;;
11681;SDS011;5897;42.640;23.310;2023-03-26T04:45:43;2.67;;;2.47;;
11681;SDS011;5897;42.640;23.310;2023-03-26T04:48:12;3.10;;;2.80;;
11681;SDS011;5897;42.640;23.310;2023-03-26T04:50:39;3.00;;;2.70;;
11681;SDS011;5897;42.640;23.310;2023-03-26T04:53:08;3.10;;;2.80;;
11681;SDS011;5897;42.640;23.310;2023-03-26T04:55:38;3.15;;;2.88;;
11681;SDS011;5897;42.640;23.310;2023-03-26T04:58:11;3.13;;;2.90;;
11681;SDS011;5897;42.640;23.310;2023-03-26T05:00:39;2.90;;;2.70;;
11681;SDS011;5897;42.640;23.310;2023-03-26T05:03:08;3.25;;;3.00;;
11681;SDS011;5897;42.640;23.310;2023-03-26T05:05:35;3.35;;;3.10;;
11681;SDS011;5897;42.640;23.310;2023-03-26T05:08:02;4.75;;;3.80;;
11681;SDS011;5897;42.640;23.310;2023-03-26T05:10:29;3.75;;;3.45;;
11681;SDS011;5897;42.640;23.310;2023-03-26T05:12:57;4.57;;;4.18;;
11681;SDS011;5897;42.640;23.310;2023-03-26T05:15:25;4.30;;;4.00;;
11681;SDS011;5897;42.640;23.310;2023-03-26T05:17:51;4.70;;;4.30;;
11681;SDS011;5897;42.640;23.310;2023-03-26T05:20:20;4.93;;;4.53;;
11681;SDS011;5897;42.640;23.310;2023-03-26T05:22:48;4.55;;;4.15;;
11681;SDS011;5897;42.640;23.310;2023-03-26T05:25:18;4.93;;;4.45;;
11681;SDS011;5897;42.640;23.310;2023-03-26T05:27:45;4.88;;;4.47;;
11681;SDS011;5897;42.640;23.310;2023-03-26T05:30:13;4.03;;;3.67;;
11681;SDS011;5897;42.640;23.310;2023-03-26T05:32:44;4.18;;;3.88;;
11681;SDS011;5897;42.640;23.310;2023-03-26T05:35:12;4.50;;;4.10;;
11681;SDS011;5897;42.640;23.310;2023-03-26T05:37:41;5.05;;;4.32;;
11681;SDS011;5897;42.640;23.310;2023-03-26T05:40:09;4.18;;;3.88;;
11681;SDS011;5897;42.640;23.310;2023-03-26T05:42:38;4.22;;;3.92;;
11681;SDS011;5897;42.640;23.310;2023-03-26T05:45:06;5.00;;;4.30;;
11681;SDS011;5897;42.640;23.310;2023-03-26T05:47:34;4.55;;;4.20;;
11681;SDS011;5897;42.640;23.310;2023-03-26T05:50:03;4.60;;;4.20;;
11681;SDS011;5897;42.640;23.310;2023-03-26T05:52:31;4.35;;;4.05;;
11681;SDS011;5897;42.640;23.310;2023-03-26T05:54:58;4.10;;;3.72;;
11681;SDS011;5897;42.640;23.310;2023-03-26T05:57:26;4.65;;;4.25;;
11681;SDS011;5897;42.640;23.310;2023-03-26T05:59:54;4.65;;;4.25;;
11681;SDS011;5897;42.640;23.310;2023-03-26T06:02:21;4.47;;;4.15;;
11681;SDS011;5897;42.640;23.310;2023-03-26T06:04:48;4.72;;;4.32;;
11681;SDS011;5897;42.640;23.310;2023-03-26T06:07:16;5.07;;;4.65;;
11681;SDS011;5897;42.640;23.310;2023-03-26T06:09:44;4.95;;;4.55;;
11681;SDS011;5897;42.640;23.310;2023-03-26T06:12:10;4.55;;;4.18;;
11681;SDS011;5897;42.640;23.310;2023-03-26T06:14:37;4.85;;;4.45;;
11681;SDS011;5897;42.640;23.310;2023-03-26T06:17:06;4.32;;;4.03;;
11681;SDS011;5897;42.640;23.310;2023-03-26T06:19:34;4.55;;;4.15;;
11681;SDS011;5897;42.640;23.310;2023-03-26T06:22:01;4.80;;;4.40;;
11681;SDS011;5897;42.640;23.310;2023-03-26T06:24:30;5.57;;;4.65;;
11681;SDS011;5897;42.640;23.310;2023-03-26T06:26:57;5.15;;;4.75;;
11681;SDS011;5897;42.640;23.310;2023-03-26T06:29:24;5.88;;;5.38;;
11681;SDS011;5897;42.640;23.310;2023-03-26T06:31:51;5.53;;;4.82;;
11681;SDS011;5897;42.640;23.310;2023-03-26T06:34:17;6.53;;;5.20;;
11681;SDS011;5897;42.640;23.310;2023-03-26T06:36:44;5.70;;;5.20;;
11681;SDS011;5897;42.640;23.310;2023-03-26T06:39:12;4.97;;;4.57;;
11681;SDS011;5897;42.640;23.310;2023-03-26T06:41:41;4.80;;;4.40;;
11681;SDS011;5897;42.640;23.310;2023-03-26T06:44:07;5.45;;;4.95;;
11681;SDS011;5897;42.640;23.310;2023-03-26T06:46:35;5.93;;;5.13;;
11681;SDS011;5897;42.640;23.310;2023-03-26T06:49:02;6.18;;;5.57;;
11681;SDS011;5897;42.640;23.310;2023-03-26T06:51:29;5.40;;;4.75;;
11681;SDS011;5897;42.640;23.310;2023-03-26T06:53:55;5.40;;;4.90;;
11681;SDS011;5897;42.640;23.310;2023-03-26T06:56:22;6.10;;;5.40;;
11681;SDS011;5897;42.640;23.310;2023-03-26T06:58:50;5.85;;;5.07;;
11681;SDS011;5897;42.640;23.310;2023-03-26T07:01:17;5.45;;;4.55;;
11681;SDS011;5897;42.640;23.310;2023-03-26T07:03:44;5.47;;;5.05;;
11681;SDS011;5897;42.640;23.310;2023-03-26T07:06:11;5.22;;;4.72;;
11681;SDS011;5897;42.640;23.310;2023-03-26T07:08:38;6.03;;;5.30;;
11681;SDS011;5897;42.640;23.310;2023-03-26T07:11:05;6.00;;;5.10;;
11681;SDS011;5897;42.640;23.310;2023-03-26T07:13:32;5.80;;;4.63;;
11681;SDS011;5897;42.640;23.310;2023-03-26T07:16:00;4.57;;;4.18;;
11681;SDS011;5897;42.640;23.310;2023-03-26T07:18:27;4.25;;;3.88;;
11681;SDS011;5897;42.640;23.310;2023-03-26T07:20:54;4.75;;;4.20;;
11681;SDS011;5897;42.640;23.310;2023-03-26T07:23:22;4.50;;;4.10;;
11681;SDS011;5897;42.640;23.310;2023-03-26T07:25:49;3.95;;;3.55;;
11681;SDS011;5897;42.640;23.310;2023-03-26T07:28:19;4.60;;;4.20;;
11681;SDS011;5897;42.640;23.310;2023-03-26T07:30:57;5.60;;;4.72;;
11681;SDS011;5897;42.640;23.310;2023-03-26T07:33:33;4.07;;;3.72;;
11681;SDS011;5897;42.640;23.310;2023-03-26T07:36:07;4.32;;;3.92;;
11681;SDS011;5897;42.640;23.310;2023-03-26T07:38:45;4.97;;;3.60;;
11681;SDS011;5897;42.640;23.310;2023-03-26T07:41:22;4.63;;;4.22;;
11681;SDS011;5897;42.640;23.310;2023-03-26T07:43:58;5.30;;;4.10;;
11681;SDS011;5897;42.640;23.310;2023-03-26T07:46:35;4.35;;;4.00;;
11681;SDS011;5897;42.640;23.310;2023-03-26T07:49:03;4.55;;;4.07;;
11681;SDS011;5897;42.640;23.310;2023-03-26T07:51:31;5.20;;;3.40;;
11681;SDS011;5897;42.640;23.310;2023-03-26T07:54:02;4.40;;;4.00;;
11681;SDS011;5897;42.640;23.310;2023-03-26T07:56:31;4.20;;;3.80;;
11681;SDS011;5897;42.640;23.310;2023-03-26T07:59:07;3.30;;;3.10;;
11681;SDS011;5897;42.640;23.310;2023-03-26T08:01:47;2.90;;;2.70;;
11681;SDS011;5897;42.640;23.310;2023-03-26T08:04:27;3.72;;;2.60;;
11681;SDS011;5897;42.640;23.310;2023-03-26T08:07:09;2.90;;;2.70;;
11681;SDS011;5897;42.640;23.310;2023-03-26T08:09:45;3.22;;;2.80;;
11681;SDS011;5897;42.640;23.310;2023-03-26T08:12:22;3.05;;;2.50;;
11681;SDS011;5897;42.640;23.310;2023-03-26T08:14:57;4.30;;;2.50;;
11681;SDS011;5897;42.640;23.310;2023-03-26T08:17:32;2.65;;;2.45;;
11681;SDS011;5897;42.640;23.310;2023-03-26T08:20:06;2.47;;;2.13;;
11681;SDS011;5897;42.640;23.310;2023-03-26T08:22:45;2.50;;;2.30;;
11681;SDS011;5897;42.640;23.310;2023-03-26T08:25:19;2.55;;;2.33;;
11681;SDS011;5897;42.640;23.310;2023-03-26T08:27:59;3.25;;;2.72;;
11681;SDS011;5897;42.640;23.310;2023-03-26T08:30:40;2.70;;;2.50;;
11681;SDS011;5897;42.640;23.310;2023-03-26T08:33:13;3.58;;;2.65;;
11681;SDS011;5897;42.640;23.310;2023-03-26T08:35:43;3.15;;;2.90;;
11681;SDS011;5897;42.640;23.310;2023-03-26T08:38:10;3.05;;;2.70;;
11681;SDS011;5897;42.640;23.310;2023-03-26T08:47:26;2.03;;;1.92;;
11681;SDS011;5897;42.640;23.310;2023-03-26T08:56:46;2.40;;;2.20;;
11681;SDS011;5897;42.640;23.310;2023-03-26T09:05:40;2.42;;;2.10;;
11681;SDS011;5897;42.640;23.310;2023-03-26T09:09:02;2.30;;;2.10;;
11681;SDS011;5897;42.640;23.310;2023-03-26T09:15:15;3.65;;;2.03;;
11681;SDS011;5897;42.640;23.310;2023-03-26T09:24:34;2.72;;;1.80;;
11681;SDS011;5897;42.640;23.310;2023-03-26T09:27:34;2.30;;;1.80;;
11681;SDS011;5897;42.640;23.310;2023-03-26T09:33:15;1.52;;;1.33;;
11681;SDS011;5897;42.640;23.310;2023-03-26T09:35:54;1.52;;;1.30;;
11681;SDS011;5897;42.640;23.310;2023-03-26T09:38:48;1.75;;;1.40;;
11681;SDS011;5897;42.640;23.310;2023-03-26T09:41:21;2.25;;;1.63;;
11681;SDS011;5897;42.640;23.310;2023-03-26T09:44:14;1.48;;;1.27;;
11681;SDS011;5897;42.640;23.310;2023-03-26T09:47:17;1.40;;;1.25;;
11681;SDS011;5897;42.640;23.310;2023-03-26T09:53:39;1.25;;;1.15;;
11681;SDS011;5897;42.640;23.310;2023-03-26T09:56:24;1.30;;;1.20;;
11681;SDS011;5897;42.640;23.310;2023-03-26T09:59:09;1.30;;;1.20;;
11681;SDS011;5897;42.640;23.310;2023-03-26T10:01:56;1.85;;;1.55;;
11681;SDS011;5897;42.640;23.310;2023-03-26T10:04:41;1.40;;;1.30;;
11681;SDS011;5897;42.640;23.310;2023-03-26T10:07:30;1.42;;;1.20;;
11681;SDS011;5897;42.640;23.310;2023-03-26T10:10:16;1.48;;;1.10;;
11681;SDS011;5897;42.640;23.310;2023-03-26T10:12:50;5.55;;;1.20;;
11681;SDS011;5897;42.640;23.310;2023-03-26T10:15:31;1.42;;;1.17;;
11681;SDS011;5897;42.640;23.310;2023-03-26T10:18:07;1.20;;;1.10;;
11681;SDS011;5897;42.640;23.310;2023-03-26T10:20:52;1.38;;;0.63;;
11681;SDS011;5897;42.640;23.310;2023-03-26T10:23:32;0.90;;;0.90;;
11681;SDS011;5897;42.640;23.310;2023-03-26T10:26:14;0.77;;;0.75;;
11681;SDS011;5897;42.640;23.310;2023-03-26T10:29:14;1.38;;;0.88;;
11681;SDS011;5897;42.640;23.310;2023-03-26T10:32:08;0.70;;;0.70;;
11681;SDS011;5897;42.640;23.310;2023-03-26T10:34:48;2.15;;;0.73;;
11681;SDS011;5897;42.640;23.310;2023-03-26T10:37:25;0.82;;;0.70;;
11681;SDS011;5897;42.640;23.310;2023-03-26T10:40:07;0.80;;;0.80;;
11681;SDS011;5897;42.640;23.310;2023-03-26T10:42:44;0.63;;;0.63;;
11681;SDS011;5897;42.640;23.310;2023-03-26T10:45:30;0.75;;;0.60;;
11681;SDS011;5897;42.640;23.310;2023-03-26T10:48:12;1.42;;;0.70;;
11681;SDS011;5897;42.640;23.310;2023-03-26T10:50:56;0.80;;;0.80;;
11681;SDS011;5897;42.640;23.310;2023-03-26T10:53:41;0.60;;;0.60;;
11681;SDS011;5897;42.640;23.310;2023-03-26T10:56:15;1.98;;;0.63;;
11681;SDS011;5897;42.640;23.310;2023-03-26T10:58:58;0.80;;;0.60;;
11681;SDS011;5897;42.640;23.310;2023-03-26T11:01:34;0.68;;;0.45;;
11681;SDS011;5897;42.640;23.310;2023-03-26T11:04:10;1.27;;;0.70;;
11681;SDS011;5897;42.640;23.310;2023-03-26T11:06:48;2.05;;;0.63;;
11681;SDS011;5897;42.640;23.310;2023-03-26T11:09:27;0.85;;;0.60;;
11681;SDS011;5897;42.640;23.310;2023-03-26T11:12:03;1.05;;;0.40;;
11681;SDS011;5897;42.640;23.310;2023-03-26T11:14:40;0.43;;;0.43;;
11681;SDS011;5897;42.640;23.310;2023-03-26T11:17:13;0.40;;;0.40;;
11681;SDS011;5897;42.640;23.310;2023-03-26T11:19:49;1.35;;;0.65;;
11681;SDS011;5897;42.640;23.310;2023-03-26T11:22:22;0.73;;;0.50;;
11681;SDS011;5897;42.640;23.310;2023-03-26T11:25:08;1.08;;;0.50;;
11681;SDS011;5897;42.640;23.310;2023-03-26T11:27:58;0.85;;;0.60;;
11681;SDS011;5897;42.640;23.310;2023-03-26T11:30:36;0.60;;;0.60;;
11681;SDS011;5897;42.640;23.310;2023-03-26T11:33:12;1.33;;;0.70;;
11681;SDS011;5897;42.640;23.310;2023-03-26T11:35:45;0.70;;;0.60;;
11681;SDS011;5897;42.640;23.310;2023-03-26T11:38:15;3.80;;;0.77;;
11681;SDS011;5897;42.640;23.310;2023-03-26T11:40:48;1.15;;;0.50;;
11681;SDS011;5897;42.640;23.310;2023-03-26T11:43:19;0.82;;;0.57;;
11681;SDS011;5897;42.640;23.310;2023-03-26T11:45:50;1.02;;;0.90;;
11681;SDS011;5897;42.640;23.310;2023-03-26T11:48:18;0.95;;;0.90;;
11681;SDS011;5897;42.640;23.310;2023-03-26T11:50:54;1.40;;;0.90;;
11681;SDS011;5897;42.640;23.310;2023-03-26T11:53:26;1.08;;;0.65;;
11681;SDS011;5897;42.640;23.310;2023-03-26T11:55:58;1.67;;;0.60;;
11681;SDS011;5897;42.640;23.310;2023-03-26T11:58:29;1.33;;;0.70;;
11681;SDS011;5897;42.640;23.310;2023-03-26T12:01:02;0.70;;;0.70;;
11681;SDS011;5897;42.640;23.310;2023-03-26T12:03:30;1.05;;;0.77;;
11681;SDS011;5897;42.640;23.310;2023-03-26T12:05:59;1.70;;;0.80;;
11681;SDS011;5897;42.640;23.310;2023-03-26T12:08:29;1.70;;;1.00;;
11681;SDS011;5897;42.640;23.310;2023-03-26T12:10:59;1.05;;;0.60;;
11681;SDS011;5897;42.640;23.310;2023-03-26T12:13:32;0.95;;;0.80;;
11681;SDS011;5897;42.640;23.310;2023-03-26T12:16:04;0.70;;;0.70;;
11681;SDS011;5897;42.640;23.310;2023-03-26T12:18:34;1.85;;;0.63;;
11681;SDS011;5897;42.640;23.310;2023-03-26T12:21:07;2.05;;;0.60;;
11681;SDS011;5897;42.640;23.310;2023-03-26T12:23:36;0.70;;;0.70;;
11681;SDS011;5897;42.640;23.310;2023-03-26T12:26:17;2.15;;;1.00;;
11681;SDS011;5897;42.640;23.310;2023-03-26T12:28:47;16.17;;;2.10;;
11681;SDS011;5897;42.640;23.310;2023-03-26T12:31:15;1.02;;;0.70;;
11681;SDS011;5897;42.640;23.310;2023-03-26T12:33:44;2.35;;;1.20;;
11681;SDS011;5897;42.640;23.310;2023-03-26T12:36:30;1.40;;;0.82;;
11681;SDS011;5897;42.640;23.310;2023-03-26T12:38:59;1.10;;;0.80;;
11681;SDS011;5897;42.640;23.310;2023-03-26T12:41:32;1.10;;;0.90;;
11681;SDS011;5897;42.640;23.310;2023-03-26T12:44:13;0.93;;;0.60;;
11681;SDS011;5897;42.640;23.310;2023-03-26T12:46:47;1.25;;;0.90;;
11681;SDS011;5897;42.640;23.310;2023-03-26T12:49:18;3.58;;;1.30;;
11681;SDS011;5897;42.640;23.310;2023-03-26T12:51:48;1.33;;;1.10;;
11681;SDS011;5897;42.640;23.310;2023-03-26T12:54:30;0.60;;;0.60;;
11681;SDS011;5897;42.640;23.310;2023-03-26T12:57:11;1.70;;;0.80;;
11681;SDS011;5897;42.640;23.310;2023-03-26T12:59:49;1.20;;;0.95;;
11681;SDS011;5897;42.640;23.310;2023-03-26T13:02:42;0.73;;;0.70;;
11681;SDS011;5897;42.640;23.310;2023-03-26T13:05:31;1.17;;;0.63;;
11681;SDS011;5897;42.640;23.310;2023-03-26T13:08:22;0.88;;;0.57;;
11681;SDS011;5897;42.640;23.310;2023-03-26T13:11:02;0.90;;;0.60;;
11681;SDS011;5897;42.640;23.310;2023-03-26T13:16:25;1.35;;;0.80;;
11681;SDS011;5897;42.640;23.310;2023-03-26T13:19:00;0.93;;;0.80;;
11681;SDS011;5897;42.640;23.310;2023-03-26T13:21:35;1.60;;;0.63;;
11681;SDS011;5897;42.640;23.310;2023-03-26T13:24:22;0.65;;;0.60;;
11681;SDS011;5897;42.640;23.310;2023-03-26T13:27:00;2.83;;;0.55;;
11681;SDS011;5897;42.640;23.310;2023-03-26T13:29:37;0.45;;;0.45;;
11681;SDS011;5897;42.640;23.310;2023-03-26T13:32:12;1.38;;;0.43;;
11681;SDS011;5897;42.640;23.310;2023-03-26T13:34:55;0.93;;;0.50;;
11681;SDS011;5897;42.640;23.310;2023-03-26T13:37:31;0.65;;;0.60;;
11681;SDS011;5897;42.640;23.310;2023-03-26T13:40:13;0.40;;;0.40;;
11681;SDS011;5897;42.640;23.310;2023-03-26T13:42:51;0.50;;;0.50;;
11681;SDS011;5897;42.640;23.310;2023-03-26T13:45:46;1.50;;;0.40;;
11681;SDS011;5897;42.640;23.310;2023-03-26T13:48:22;0.38;;;0.38;;
11681;SDS011;5897;42.640;23.310;2023-03-26T13:50:55;1.70;;;0.57;;
11681;SDS011;5897;42.640;23.310;2023-03-26T13:53:28;0.52;;;0.40;;
11681;SDS011;5897;42.640;23.310;2023-03-26T13:56:04;2.40;;;0.70;;
11681;SDS011;5897;42.640;23.310;2023-03-26T13:58:36;0.47;;;0.47;;
11681;SDS011;5897;42.640;23.310;2023-03-26T14:01:08;0.98;;;0.80;;
11681;SDS011;5897;42.640;23.310;2023-03-26T14:03:43;2.75;;;0.80;;
11681;SDS011;5897;42.640;23.310;2023-03-26T14:06:20;0.65;;;0.50;;
11681;SDS011;5897;42.640;23.310;2023-03-26T14:08:56;0.60;;;0.40;;
11681;SDS011;5897;42.640;23.310;2023-03-26T14:11:33;2.35;;;0.50;;
11681;SDS011;5897;42.640;23.310;2023-03-26T14:14:09;0.98;;;0.60;;
11681;SDS011;5897;42.640;23.310;2023-03-26T14:16:40;0.60;;;0.40;;
11681;SDS011;5897;42.640;23.310;2023-03-26T14:19:21;0.77;;;0.52;;
11681;SDS011;5897;42.640;23.310;2023-03-26T14:22:09;1.10;;;0.60;;
11681;SDS011;5897;42.640;23.310;2023-03-26T14:27:39;0.90;;;0.50;;
11681;SDS011;5897;42.640;23.310;2023-03-26T14:30:27;1.05;;;0.60;;
11681;SDS011;5897;42.640;23.310;2023-03-26T14:36:17;0.70;;;0.50;;
11681;SDS011;5897;42.640;23.310;2023-03-26T14:41:46;1.08;;;0.88;;
11681;SDS011;5897;42.640;23.310;2023-03-26T14:47:26;0.77;;;0.60;;
11681;SDS011;5897;42.640;23.310;2023-03-26T14:53:02;1.98;;;0.70;;
11681;SDS011;5897;42.640;23.310;2023-03-26T14:55:50;2.63;;;1.55;;
11681;SDS011;5897;42.640;23.310;2023-03-26T15:01:48;2.35;;;1.67;;
11681;SDS011;5897;42.640;23.310;2023-03-26T15:10:43;1.00;;;0.90;;
11681;SDS011;5897;42.640;23.310;2023-03-26T15:25:49;3.95;;;1.00;;
11681;SDS011;5897;42.640;23.310;2023-03-26T15:31:32;0.95;;;0.73;;
11681;SDS011;5897;42.640;23.310;2023-03-26T15:34:28;1.23;;;0.70;;
11681;SDS011;5897;42.640;23.310;2023-03-26T15:40:43;0.68;;;0.57;;
11681;SDS011;5897;42.640;23.310;2023-03-26T15:43:28;0.73;;;0.70;;
11681;SDS011;5897;42.640;23.310;2023-03-26T15:46:24;1.77;;;0.90;;
11681;SDS011;5897;42.640;23.310;2023-03-26T15:49:00;1.40;;;1.15;;
11681;SDS011;5897;42.640;23.310;2023-03-26T15:51:36;1.95;;;0.60;;
11681;SDS011;5897;42.640;23.310;2023-03-26T15:54:15;1.17;;;0.80;;
11681;SDS011;5897;42.640;23.310;2023-03-26T15:59:51;0.75;;;0.70;;
11681;SDS011;5897;42.640;23.310;2023-03-26T16:02:38;1.00;;;0.77;;
11681;SDS011;5897;42.640;23.310;2023-03-26T16:08:10;2.75;;;0.93;;
11681;SDS011;5897;42.640;23.310;2023-03-26T16:10:46;1.33;;;0.77;;
11681;SDS011;5897;42.640;23.310;2023-03-26T16:13:22;0.60;;;0.60;;
11681;SDS011;5897;42.640;23.310;2023-03-26T16:15:59;2.70;;;1.33;;
11681;SDS011;5897;42.640;23.310;2023-03-26T16:18:43;2.33;;;1.25;;
11681;SDS011;5897;42.640;23.310;2023-03-26T16:21:23;4.60;;;1.30;;
11681;SDS011;5897;42.640;23.310;2023-03-26T16:27:00;1.40;;;1.30;;
11681;SDS011;5897;42.640;23.310;2023-03-26T16:30:00;2.17;;;1.23;;
11681;SDS011;5897;42.640;23.310;2023-03-26T16:32:58;2.20;;;1.05;;
11681;SDS011;5897;42.640;23.310;2023-03-26T16:35:47;3.17;;;1.52;;
11681;SDS011;5897;42.640;23.310;2023-03-26T16:38:37;1.92;;;1.50;;
11681;SDS011;5897;42.640;23.310;2023-03-26T16:41:14;3.00;;;2.20;;
11681;SDS011;5897;42.640;23.310;2023-03-26T16:43:49;6.40;;;3.80;;
11681;SDS011;5897;42.640;23.310;2023-03-26T16:46:28;11.52;;;5.60;;
11681;SDS011;5897;42.640;23.310;2023-03-26T16:49:04;9.98;;;5.38;;
11681;SDS011;5897;42.640;23.310;2023-03-26T16:52:04;5.95;;;3.22;;
11681;SDS011;5897;42.640;23.310;2023-03-26T16:54:56;5.35;;;3.47;;
11681;SDS011;5897;42.640;23.310;2023-03-26T16:57:42;4.63;;;3.30;;
11681;SDS011;5897;42.640;23.310;2023-03-26T17:00:20;4.97;;;2.60;;